sensor_id;sensor_type;location;lat;lon;timestamp;temperature;humidity
31765;DHT22;18338;53.240;8.798;2022-12-20T00:01:29;8.10;99.90
31765;DHT22;18338;53.240;8.798;2022-12-20T00:03:58;8.10;99.90
31765;DHT22;18338;53.240;8.798;2022-12-20T00:06:25;8.20;99.90
31765;DHT22;18338;53.240;8.798;2022-12-20T00:08:57;8.30;99.90
31765;DHT22;18338;53.240;8.798;2022-12-20T00:11:24;8.30;99.90
31765;DHT22;18338;53.240;8.798;2022-12-20T00:13:51;8.30;99.90
31765;DHT22;18338;53.240;8.798;2022-12-20T00:16:20;8.30;99.90
31765;DHT22;18338;53.240;8.798;2022-12-20T00:18:51;8.30;99.90
31765;DHT22;18338;53.240;8.798;2022-12-20T00:21:18;8.30;99.90
31765;DHT22;18338;53.240;8.798;2022-12-20T00:23:45;8.30;99.90
31765;DHT22;18338;53.240;8.798;2022-12-20T00:26:15;8.40;99.90
31765;DHT22;18338;53.240;8.798;2022-12-20T00:28:43;8.40;99.90
31765;DHT22;18338;53.240;8.798;2022-12-20T00:31:12;8.40;99.90
31765;DHT22;18338;53.240;8.798;2022-12-20T00:33:42;8.40;99.90
31765;DHT22;18338;53.240;8.798;2022-12-20T00:36:10;8.30;99.90
31765;DHT22;18338;53.240;8.798;2022-12-20T00:38:36;8.40;99.90
31765;DHT22;18338;53.240;8.798;2022-12-20T00:41:09;8.40;99.90
31765;DHT22;18338;53.240;8.798;2022-12-20T00:43:37;8.40;99.90
31765;DHT22;18338;53.240;8.798;2022-12-20T00:46:05;8.40;99.90
31765;DHT22;18338;53.240;8.798;2022-12-20T00:48:33;8.40;99.90
31765;DHT22;18338;53.240;8.798;2022-12-20T00:51:05;8.40;99.90
31765;DHT22;18338;53.240;8.798;2022-12-20T00:53:32;8.40;99.90
31765;DHT22;18338;53.240;8.798;2022-12-20T00:55:59;8.30;99.90
31765;DHT22;18338;53.240;8.798;2022-12-20T00:58:26;8.20;99.90
31765;DHT22;18338;53.240;8.798;2022-12-20T01:00:53;8.20;99.90
31765;DHT22;18338;53.240;8.798;2022-12-20T01:03:23;8.00;99.90
31765;DHT22;18338;53.240;8.798;2022-12-20T01:05:54;8.00;99.90
31765;DHT22;18338;53.240;8.798;2022-12-20T01:08:22;8.10;99.90
31765;DHT22;18338;53.240;8.798;2022-12-20T01:11:05;8.10;99.90
31765;DHT22;18338;53.240;8.798;2022-12-20T01:13:33;8.20;99.90
31765;DHT22;18338;53.240;8.798;2022-12-20T01:16:12;8.30;99.90
31765;DHT22;18338;53.240;8.798;2022-12-20T01:18:39;8.40;99.90
31765;DHT22;18338;53.240;8.798;2022-12-20T01:21:09;8.50;99.90
31765;DHT22;18338;53.240;8.798;2022-12-20T01:23:36;8.60;99.90
31765;DHT22;18338;53.240;8.798;2022-12-20T01:26:05;8.60;99.90
31765;DHT22;18338;53.240;8.798;2022-12-20T01:28:35;8.70;99.90
31765;DHT22;18338;53.240;8.798;2022-12-20T01:31:09;8.70;99.90
31765;DHT22;18338;53.240;8.798;2022-12-20T01:33:36;8.80;99.90
31765;DHT22;18338;53.240;8.798;2022-12-20T01:36:10;8.90;99.90
31765;DHT22;18338;53.240;8.798;2022-12-20T01:38:38;9.00;99.90
31765;DHT22;18338;53.240;8.798;2022-12-20T01:41:04;9.00;99.90
31765;DHT22;18338;53.240;8.798;2022-12-20T01:43:52;9.10;99.90
31765;DHT22;18338;53.240;8.798;2022-12-20T01:46:21;9.20;99.90
31765;DHT22;18338;53.240;8.798;2022-12-20T01:49:07;9.30;99.90
31765;DHT22;18338;53.240;8.798;2022-12-20T01:51:41;9.30;99.90
31765;DHT22;18338;53.240;8.798;2022-12-20T01:54:16;9.30;99.90
31765;DHT22;18338;53.240;8.798;2022-12-20T01:56:49;9.30;99.90
31765;DHT22;18338;53.240;8.798;2022-12-20T01:59:17;9.30;99.90
31765;DHT22;18338;53.240;8.798;2022-12-20T02:01:44;9.40;99.90
31765;DHT22;18338;53.240;8.798;2022-12-20T02:04:11;9.40;99.90
31765;DHT22;18338;53.240;8.798;2022-12-20T02:06:38;9.40;99.90
31765;DHT22;18338;53.240;8.798;2022-12-20T02:09:06;9.50;99.90
31765;DHT22;18338;53.240;8.798;2022-12-20T02:14:38;9.50;99.90
31765;DHT22;18338;53.240;8.798;2022-12-20T02:30:35;9.50;99.90
31765;DHT22;18338;53.240;8.798;2022-12-20T02:33:07;9.60;99.90
31765;DHT22;18338;53.240;8.798;2022-12-20T02:35:37;9.60;99.90
31765;DHT22;18338;53.240;8.798;2022-12-20T02:38:36;9.70;99.90
31765;DHT22;18338;53.240;8.798;2022-12-20T02:41:26;9.70;99.90
31765;DHT22;18338;53.240;8.798;2022-12-20T02:44:06;9.70;99.90
31765;DHT22;18338;53.240;8.798;2022-12-20T02:46:55;9.70;99.90
31765;DHT22;18338;53.240;8.798;2022-12-20T02:49:28;9.70;99.90
31765;DHT22;18338;53.240;8.798;2022-12-20T02:51:56;9.70;99.90
31765;DHT22;18338;53.240;8.798;2022-12-20T02:54:26;9.70;99.90
31765;DHT22;18338;53.240;8.798;2022-12-20T02:57:00;9.70;99.90
31765;DHT22;18338;53.240;8.798;2022-12-20T02:59:40;9.70;99.90
31765;DHT22;18338;53.240;8.798;2022-12-20T03:02:10;9.70;99.90
31765;DHT22;18338;53.240;8.798;2022-12-20T03:04:39;9.70;99.90
31765;DHT22;18338;53.240;8.798;2022-12-20T03:07:12;9.70;99.90
31765;DHT22;18338;53.240;8.798;2022-12-20T03:09:41;9.70;99.90
31765;DHT22;18338;53.240;8.798;2022-12-20T03:12:09;9.70;99.90
31765;DHT22;18338;53.240;8.798;2022-12-20T03:14:38;9.70;99.90
31765;DHT22;18338;53.240;8.798;2022-12-20T03:17:05;9.60;99.90
31765;DHT22;18338;53.240;8.798;2022-12-20T03:19:32;9.50;99.90
31765;DHT22;18338;53.240;8.798;2022-12-20T03:21:58;9.50;99.90
31765;DHT22;18338;53.240;8.798;2022-12-20T03:24:25;9.50;99.90
31765;DHT22;18338;53.240;8.798;2022-12-20T03:26:52;9.40;99.90
31765;DHT22;18338;53.240;8.798;2022-12-20T03:29:19;9.40;99.90
31765;DHT22;18338;53.240;8.798;2022-12-20T03:31:46;9.40;99.90
31765;DHT22;18338;53.240;8.798;2022-12-20T03:34:12;9.30;99.90
31765;DHT22;18338;53.240;8.798;2022-12-20T03:36:39;9.30;99.90
31765;DHT22;18338;53.240;8.798;2022-12-20T03:39:05;9.30;99.90
31765;DHT22;18338;53.240;8.798;2022-12-20T03:41:32;9.30;99.90
31765;DHT22;18338;53.240;8.798;2022-12-20T03:43:59;9.30;99.90
31765;DHT22;18338;53.240;8.798;2022-12-20T03:46:26;9.30;99.90
31765;DHT22;18338;53.240;8.798;2022-12-20T03:48:53;9.30;99.90
31765;DHT22;18338;53.240;8.798;2022-12-20T03:51:20;9.40;99.90
31765;DHT22;18338;53.240;8.798;2022-12-20T03:53:47;9.40;99.90
31765;DHT22;18338;53.240;8.798;2022-12-20T03:56:13;9.30;99.90
31765;DHT22;18338;53.240;8.798;2022-12-20T03:58:41;9.30;99.90
31765;DHT22;18338;53.240;8.798;2022-12-20T04:01:25;9.20;99.90
31765;DHT22;18338;53.240;8.798;2022-12-20T04:03:54;9.20;99.90
31765;DHT22;18338;53.240;8.798;2022-12-20T04:06:21;9.10;99.90
31765;DHT22;18338;53.240;8.798;2022-12-20T04:08:48;9.00;99.90
31765;DHT22;18338;53.240;8.798;2022-12-20T04:11:15;9.00;99.90
31765;DHT22;18338;53.240;8.798;2022-12-20T04:16:11;8.90;99.90
31765;DHT22;18338;53.240;8.798;2022-12-20T04:18:38;9.00;99.90
31765;DHT22;18338;53.240;8.798;2022-12-20T04:21:05;9.00;99.90
31765;DHT22;18338;53.240;8.798;2022-12-20T04:23:36;9.00;99.90
31765;DHT22;18338;53.240;8.798;2022-12-20T04:26:04;9.00;99.90
31765;DHT22;18338;53.240;8.798;2022-12-20T04:28:34;9.00;99.90
31765;DHT22;18338;53.240;8.798;2022-12-20T04:31:04;8.90;99.90
31765;DHT22;18338;53.240;8.798;2022-12-20T04:33:31;8.90;99.90
31765;DHT22;18338;53.240;8.798;2022-12-20T04:35:57;8.90;99.90
31765;DHT22;18338;53.240;8.798;2022-12-20T04:38:24;8.90;99.90
31765;DHT22;18338;53.240;8.798;2022-12-20T04:40:52;8.90;99.90
31765;DHT22;18338;53.240;8.798;2022-12-20T04:43:21;8.90;99.90
31765;DHT22;18338;53.240;8.798;2022-12-20T04:45:49;8.90;99.90
31765;DHT22;18338;53.240;8.798;2022-12-20T04:48:17;8.90;99.90
31765;DHT22;18338;53.240;8.798;2022-12-20T04:51:04;8.90;99.90
31765;DHT22;18338;53.240;8.798;2022-12-20T04:53:31;8.90;99.90
31765;DHT22;18338;53.240;8.798;2022-12-20T04:56:22;8.90;99.90
31765;DHT22;18338;53.240;8.798;2022-12-20T04:58:54;8.90;99.90
31765;DHT22;18338;53.240;8.798;2022-12-20T05:01:21;8.90;99.90
31765;DHT22;18338;53.240;8.798;2022-12-20T05:03:49;8.90;99.90
31765;DHT22;18338;53.240;8.798;2022-12-20T05:06:16;8.90;99.90
31765;DHT22;18338;53.240;8.798;2022-12-20T05:08:43;8.90;99.90
31765;DHT22;18338;53.240;8.798;2022-12-20T05:11:10;8.80;99.90
31765;DHT22;18338;53.240;8.798;2022-12-20T05:13:37;8.80;99.90
31765;DHT22;18338;53.240;8.798;2022-12-20T05:16:04;8.70;99.90
31765;DHT22;18338;53.240;8.798;2022-12-20T05:18:31;8.80;99.90
31765;DHT22;18338;53.240;8.798;2022-12-20T05:20:59;8.80;99.90
31765;DHT22;18338;53.240;8.798;2022-12-20T05:23:45;8.80;99.90
31765;DHT22;18338;53.240;8.798;2022-12-20T05:26:35;8.80;99.90
31765;DHT22;18338;53.240;8.798;2022-12-20T05:29:04;8.80;99.90
31765;DHT22;18338;53.240;8.798;2022-12-20T05:31:31;8.80;99.90
31765;DHT22;18338;53.240;8.798;2022-12-20T05:33:58;8.80;99.90
31765;DHT22;18338;53.240;8.798;2022-12-20T05:36:24;8.80;99.90
31765;DHT22;18338;53.240;8.798;2022-12-20T05:38:51;8.70;99.90
31765;DHT22;18338;53.240;8.798;2022-12-20T05:41:25;8.80;99.90
31765;DHT22;18338;53.240;8.798;2022-12-20T05:43:52;8.90;99.90
31765;DHT22;18338;53.240;8.798;2022-12-20T05:46:19;8.90;99.90
31765;DHT22;18338;53.240;8.798;2022-12-20T05:48:46;9.00;99.90
31765;DHT22;18338;53.240;8.798;2022-12-20T05:51:12;9.10;99.90
31765;DHT22;18338;53.240;8.798;2022-12-20T05:53:39;9.20;99.90
31765;DHT22;18338;53.240;8.798;2022-12-20T05:56:07;9.20;99.90
31765;DHT22;18338;53.240;8.798;2022-12-20T05:58:33;9.30;99.90
31765;DHT22;18338;53.240;8.798;2022-12-20T06:01:05;9.40;99.90
31765;DHT22;18338;53.240;8.798;2022-12-20T06:03:33;9.40;99.90
31765;DHT22;18338;53.240;8.798;2022-12-20T06:06:00;9.60;99.90
31765;DHT22;18338;53.240;8.798;2022-12-20T06:08:27;9.70;99.90
31765;DHT22;18338;53.240;8.798;2022-12-20T06:10:53;9.70;99.90
31765;DHT22;18338;53.240;8.798;2022-12-20T06:13:20;9.80;99.90
31765;DHT22;18338;53.240;8.798;2022-12-20T06:15:47;9.80;99.90
31765;DHT22;18338;53.240;8.798;2022-12-20T06:18:13;9.90;99.90
31765;DHT22;18338;53.240;8.798;2022-12-20T06:20:40;9.90;99.90
31765;DHT22;18338;53.240;8.798;2022-12-20T06:23:07;9.90;99.90
31765;DHT22;18338;53.240;8.798;2022-12-20T06:25:35;9.90;99.90
31765;DHT22;18338;53.240;8.798;2022-12-20T06:28:02;9.90;99.90
31765;DHT22;18338;53.240;8.798;2022-12-20T06:30:29;10.00;99.90
31765;DHT22;18338;53.240;8.798;2022-12-20T06:33:00;9.90;99.90
31765;DHT22;18338;53.240;8.798;2022-12-20T06:35:27;9.90;99.90
31765;DHT22;18338;53.240;8.798;2022-12-20T06:37:55;9.90;99.90
31765;DHT22;18338;53.240;8.798;2022-12-20T06:40:22;9.90;99.90
31765;DHT22;18338;53.240;8.798;2022-12-20T06:42:48;9.90;99.90
31765;DHT22;18338;53.240;8.798;2022-12-20T06:45:16;9.80;99.90
31765;DHT22;18338;53.240;8.798;2022-12-20T06:47:42;9.70;99.90
31765;DHT22;18338;53.240;8.798;2022-12-20T06:50:10;9.70;99.90
31765;DHT22;18338;53.240;8.798;2022-12-20T06:52:36;9.70;99.90
31765;DHT22;18338;53.240;8.798;2022-12-20T06:55:03;9.60;99.90
31765;DHT22;18338;53.240;8.798;2022-12-20T06:57:30;9.70;99.90
31765;DHT22;18338;53.240;8.798;2022-12-20T06:59:57;9.70;99.90
31765;DHT22;18338;53.240;8.798;2022-12-20T07:02:24;9.60;99.90
31765;DHT22;18338;53.240;8.798;2022-12-20T07:04:53;9.60;99.90
31765;DHT22;18338;53.240;8.798;2022-12-20T07:07:20;9.60;99.90
31765;DHT22;18338;53.240;8.798;2022-12-20T07:09:47;9.50;99.90
31765;DHT22;18338;53.240;8.798;2022-12-20T07:12:14;9.50;99.90
31765;DHT22;18338;53.240;8.798;2022-12-20T07:14:41;9.50;99.90
31765;DHT22;18338;53.240;8.798;2022-12-20T07:17:09;9.50;99.90
31765;DHT22;18338;53.240;8.798;2022-12-20T07:19:36;9.50;99.90
31765;DHT22;18338;53.240;8.798;2022-12-20T07:22:03;9.50;99.90
31765;DHT22;18338;53.240;8.798;2022-12-20T07:24:30;9.50;99.90
31765;DHT22;18338;53.240;8.798;2022-12-20T07:26:58;9.50;99.90
31765;DHT22;18338;53.240;8.798;2022-12-20T07:29:24;9.50;99.90
31765;DHT22;18338;53.240;8.798;2022-12-20T07:31:51;9.50;99.90
31765;DHT22;18338;53.240;8.798;2022-12-20T07:34:18;9.50;99.90
31765;DHT22;18338;53.240;8.798;2022-12-20T07:36:45;9.50;99.90
31765;DHT22;18338;53.240;8.798;2022-12-20T07:39:12;9.50;99.90
31765;DHT22;18338;53.240;8.798;2022-12-20T07:41:39;9.50;99.90
31765;DHT22;18338;53.240;8.798;2022-12-20T07:44:06;9.50;99.90
31765;DHT22;18338;53.240;8.798;2022-12-20T07:46:33;9.50;99.90
31765;DHT22;18338;53.240;8.798;2022-12-20T07:49:00;9.50;99.90
31765;DHT22;18338;53.240;8.798;2022-12-20T07:51:38;9.50;99.90
31765;DHT22;18338;53.240;8.798;2022-12-20T07:54:34;9.40;99.90
31765;DHT22;18338;53.240;8.798;2022-12-20T07:57:10;9.40;99.90
31765;DHT22;18338;53.240;8.798;2022-12-20T07:59:41;9.40;99.90
31765;DHT22;18338;53.240;8.798;2022-12-20T08:02:16;9.40;99.90
31765;DHT22;18338;53.240;8.798;2022-12-20T08:04:44;9.40;99.90
31765;DHT22;18338;53.240;8.798;2022-12-20T08:07:11;9.40;99.90
31765;DHT22;18338;53.240;8.798;2022-12-20T08:09:41;9.40;99.90
31765;DHT22;18338;53.240;8.798;2022-12-20T08:12:11;9.40;99.90
31765;DHT22;18338;53.240;8.798;2022-12-20T08:14:39;9.50;99.90
31765;DHT22;18338;53.240;8.798;2022-12-20T08:17:06;9.40;99.90
31765;DHT22;18338;53.240;8.798;2022-12-20T08:19:33;9.40;99.90
31765;DHT22;18338;53.240;8.798;2022-12-20T08:22:00;9.40;99.90
31765;DHT22;18338;53.240;8.798;2022-12-20T08:24:27;9.40;99.90
31765;DHT22;18338;53.240;8.798;2022-12-20T08:26:54;9.50;99.90
31765;DHT22;18338;53.240;8.798;2022-12-20T08:29:21;9.50;99.90
31765;DHT22;18338;53.240;8.798;2022-12-20T08:31:48;9.50;99.90
31765;DHT22;18338;53.240;8.798;2022-12-20T08:34:16;9.60;99.90
31765;DHT22;18338;53.240;8.798;2022-12-20T08:36:43;9.60;99.90
31765;DHT22;18338;53.240;8.798;2022-12-20T08:39:10;9.70;99.90
31765;DHT22;18338;53.240;8.798;2022-12-20T08:41:37;9.80;99.90
31765;DHT22;18338;53.240;8.798;2022-12-20T08:44:05;9.80;99.90
31765;DHT22;18338;53.240;8.798;2022-12-20T08:46:32;9.80;99.90
31765;DHT22;18338;53.240;8.798;2022-12-20T08:48:58;9.80;99.90
31765;DHT22;18338;53.240;8.798;2022-12-20T08:51:25;9.80;99.90
31765;DHT22;18338;53.240;8.798;2022-12-20T08:53:52;9.80;99.90
31765;DHT22;18338;53.240;8.798;2022-12-20T08:56:19;9.80;99.90
31765;DHT22;18338;53.240;8.798;2022-12-20T08:58:46;9.90;99.90
31765;DHT22;18338;53.240;8.798;2022-12-20T09:01:15;9.90;99.90
31765;DHT22;18338;53.240;8.798;2022-12-20T09:03:43;9.90;99.90
31765;DHT22;18338;53.240;8.798;2022-12-20T09:06:13;10.00;99.90
31765;DHT22;18338;53.240;8.798;2022-12-20T09:08:41;10.10;99.90
31765;DHT22;18338;53.240;8.798;2022-12-20T09:11:14;10.10;99.90
31765;DHT22;18338;53.240;8.798;2022-12-20T09:13:43;10.10;99.90
31765;DHT22;18338;53.240;8.798;2022-12-20T09:16:12;10.10;99.90
31765;DHT22;18338;53.240;8.798;2022-12-20T09:18:39;10.10;99.90
31765;DHT22;18338;53.240;8.798;2022-12-20T09:21:07;10.10;99.90
31765;DHT22;18338;53.240;8.798;2022-12-20T09:23:35;10.20;99.90
31765;DHT22;18338;53.240;8.798;2022-12-20T09:26:07;10.20;99.90
31765;DHT22;18338;53.240;8.798;2022-12-20T09:28:35;10.30;99.90
31765;DHT22;18338;53.240;8.798;2022-12-20T09:31:04;10.40;99.90
31765;DHT22;18338;53.240;8.798;2022-12-20T09:33:33;10.50;99.90
31765;DHT22;18338;53.240;8.798;2022-12-20T09:36:01;10.50;99.90
31765;DHT22;18338;53.240;8.798;2022-12-20T09:38:28;10.60;99.90
31765;DHT22;18338;53.240;8.798;2022-12-20T09:41:04;10.60;99.90
31765;DHT22;18338;53.240;8.798;2022-12-20T09:43:32;10.70;99.90
31765;DHT22;18338;53.240;8.798;2022-12-20T09:46:01;10.80;99.90
31765;DHT22;18338;53.240;8.798;2022-12-20T09:48:31;10.80;99.90
31765;DHT22;18338;53.240;8.798;2022-12-20T09:56:29;11.00;99.90
31765;DHT22;18338;53.240;8.798;2022-12-20T09:59:17;11.10;99.90
31765;DHT22;18338;53.240;8.798;2022-12-20T10:01:46;11.20;99.90
31765;DHT22;18338;53.240;8.798;2022-12-20T10:04:22;11.20;99.90
31765;DHT22;18338;53.240;8.798;2022-12-20T10:12:57;11.20;99.90
31765;DHT22;18338;53.240;8.798;2022-12-20T10:15:36;11.20;99.90
31765;DHT22;18338;53.240;8.798;2022-12-20T10:21:05;11.40;99.90
31765;DHT22;18338;53.240;8.798;2022-12-20T10:24:00;11.40;99.90
31765;DHT22;18338;53.240;8.798;2022-12-20T10:26:27;11.50;99.90
31765;DHT22;18338;53.240;8.798;2022-12-20T10:28:54;11.70;99.90
31765;DHT22;18338;53.240;8.798;2022-12-20T10:31:22;12.00;99.90
31765;DHT22;18338;53.240;8.798;2022-12-20T10:33:49;12.20;99.90
31765;DHT22;18338;53.240;8.798;2022-12-20T10:36:33;12.60;99.90
31765;DHT22;18338;53.240;8.798;2022-12-20T10:39:03;12.70;99.90
31765;DHT22;18338;53.240;8.798;2022-12-20T10:41:47;12.70;99.90
31765;DHT22;18338;53.240;8.798;2022-12-20T10:44:23;12.50;99.90
31765;DHT22;18338;53.240;8.798;2022-12-20T10:49:38;12.50;99.90
31765;DHT22;18338;53.240;8.798;2022-12-20T10:54:36;12.60;99.90
31765;DHT22;18338;53.240;8.798;2022-12-20T10:59:56;12.80;99.90
31765;DHT22;18338;53.240;8.798;2022-12-20T11:02:33;12.90;99.90
31765;DHT22;18338;53.240;8.798;2022-12-20T11:08:06;12.90;99.90
31765;DHT22;18338;53.240;8.798;2022-12-20T11:10:46;12.90;99.90
31765;DHT22;18338;53.240;8.798;2022-12-20T11:13:22;12.80;99.90
31765;DHT22;18338;53.240;8.798;2022-12-20T11:15:53;12.60;99.90
31765;DHT22;18338;53.240;8.798;2022-12-20T11:29:18;11.80;99.90
31765;DHT22;18338;53.240;8.798;2022-12-20T11:32:18;11.60;99.90
31765;DHT22;18338;53.240;8.798;2022-12-20T11:37:25;11.20;99.90
31765;DHT22;18338;53.240;8.798;2022-12-20T11:40:15;11.10;99.90
31765;DHT22;18338;53.240;8.798;2022-12-20T11:45:42;10.90;99.90
31765;DHT22;18338;53.240;8.798;2022-12-20T11:48:47;10.90;99.90
31765;DHT22;18338;53.240;8.798;2022-12-20T11:51:22;10.90;99.90
31765;DHT22;18338;53.240;8.798;2022-12-20T11:54:18;10.80;99.90
31765;DHT22;18338;53.240;8.798;2022-12-20T11:56:50;10.80;99.90
31765;DHT22;18338;53.240;8.798;2022-12-20T12:02:12;10.80;99.90
31765;DHT22;18338;53.240;8.798;2022-12-20T12:04:45;10.80;99.90
31765;DHT22;18338;53.240;8.798;2022-12-20T12:07:21;10.80;99.90
31765;DHT22;18338;53.240;8.798;2022-12-20T12:12:26;10.90;99.90
31765;DHT22;18338;53.240;8.798;2022-12-20T12:18:18;10.80;99.90
31765;DHT22;18338;53.240;8.798;2022-12-20T12:21:01;10.80;99.90
31765;DHT22;18338;53.240;8.798;2022-12-20T12:23:40;10.80;99.90
31765;DHT22;18338;53.240;8.798;2022-12-20T12:26:18;10.70;99.90
31765;DHT22;18338;53.240;8.798;2022-12-20T12:28:52;10.70;99.90
31765;DHT22;18338;53.240;8.798;2022-12-20T12:31:35;10.70;99.90
31765;DHT22;18338;53.240;8.798;2022-12-20T12:39:56;10.80;99.90
31765;DHT22;18338;53.240;8.798;2022-12-20T12:45:27;10.80;99.90
31765;DHT22;18338;53.240;8.798;2022-12-20T12:48:00;10.80;99.90
31765;DHT22;18338;53.240;8.798;2022-12-20T12:50:32;10.80;99.90
31765;DHT22;18338;53.240;8.798;2022-12-20T12:55:52;10.80;99.90
31765;DHT22;18338;53.240;8.798;2022-12-20T12:58:38;10.80;99.90
31765;DHT22;18338;53.240;8.798;2022-12-20T13:01:46;10.80;99.90
31765;DHT22;18338;53.240;8.798;2022-12-20T13:09:20;10.70;99.90
31765;DHT22;18338;53.240;8.798;2022-12-20T13:11:48;10.70;99.90
31765;DHT22;18338;53.240;8.798;2022-12-20T13:17:37;10.70;99.90
31765;DHT22;18338;53.240;8.798;2022-12-20T13:19:53;10.60;99.90
31765;DHT22;18338;53.240;8.798;2022-12-20T13:22:24;10.60;99.90
31765;DHT22;18338;53.240;8.798;2022-12-20T13:24:59;10.70;99.90
31765;DHT22;18338;53.240;8.798;2022-12-20T13:27:31;10.70;99.90
31765;DHT22;18338;53.240;8.798;2022-12-20T13:40:48;10.70;99.90
31765;DHT22;18338;53.240;8.798;2022-12-20T13:43:25;10.70;99.90
31765;DHT22;18338;53.240;8.798;2022-12-20T13:51:24;10.70;99.90
31765;DHT22;18338;53.240;8.798;2022-12-20T13:53:58;10.70;99.90
31765;DHT22;18338;53.240;8.798;2022-12-20T13:58:55;10.70;99.90
31765;DHT22;18338;53.240;8.798;2022-12-20T14:01:24;10.70;99.90
31765;DHT22;18338;53.240;8.798;2022-12-20T14:03:52;10.70;99.90
31765;DHT22;18338;53.240;8.798;2022-12-20T14:06:20;10.70;99.90
31765;DHT22;18338;53.240;8.798;2022-12-20T14:08:53;10.70;99.90
31765;DHT22;18338;53.240;8.798;2022-12-20T14:11:22;10.70;99.90
31765;DHT22;18338;53.240;8.798;2022-12-20T14:14:03;10.70;99.90
31765;DHT22;18338;53.240;8.798;2022-12-20T14:16:32;10.70;99.90
31765;DHT22;18338;53.240;8.798;2022-12-20T14:19:04;10.70;99.90
31765;DHT22;18338;53.240;8.798;2022-12-20T14:21:35;10.70;99.90
31765;DHT22;18338;53.240;8.798;2022-12-20T14:24:02;10.70;99.90
31765;DHT22;18338;53.240;8.798;2022-12-20T14:26:44;10.70;99.90
31765;DHT22;18338;53.240;8.798;2022-12-20T14:29:18;10.70;99.90
31765;DHT22;18338;53.240;8.798;2022-12-20T14:31:47;10.60;99.90
31765;DHT22;18338;53.240;8.798;2022-12-20T14:34:24;10.60;99.90
31765;DHT22;18338;53.240;8.798;2022-12-20T14:37:31;10.60;99.90
31765;DHT22;18338;53.240;8.798;2022-12-20T14:42:37;10.60;99.90
31765;DHT22;18338;53.240;8.798;2022-12-20T14:47:35;10.60;99.90
31765;DHT22;18338;53.240;8.798;2022-12-20T14:50:06;10.60;99.90
31765;DHT22;18338;53.240;8.798;2022-12-20T14:52:43;10.60;99.90
31765;DHT22;18338;53.240;8.798;2022-12-20T14:57:53;10.60;99.90
31765;DHT22;18338;53.240;8.798;2022-12-20T15:00:29;10.50;99.90
31765;DHT22;18338;53.240;8.798;2022-12-20T15:03:10;10.40;99.90
31765;DHT22;18338;53.240;8.798;2022-12-20T15:05:43;10.50;99.90
31765;DHT22;18338;53.240;8.798;2022-12-20T15:08:21;10.50;99.90
31765;DHT22;18338;53.240;8.798;2022-12-20T15:13:39;10.50;99.90
31765;DHT22;18338;53.240;8.798;2022-12-20T15:16:15;10.50;99.90
31765;DHT22;18338;53.240;8.798;2022-12-20T15:18:47;10.50;99.90
31765;DHT22;18338;53.240;8.798;2022-12-20T15:21:17;10.50;99.90
31765;DHT22;18338;53.240;8.798;2022-12-20T15:23:50;10.50;99.90
31765;DHT22;18338;53.240;8.798;2022-12-20T15:26:20;10.60;99.90
31765;DHT22;18338;53.240;8.798;2022-12-20T15:28:47;10.60;99.90
31765;DHT22;18338;53.240;8.798;2022-12-20T15:31:16;10.60;99.90
31765;DHT22;18338;53.240;8.798;2022-12-20T15:33:44;10.50;99.90
31765;DHT22;18338;53.240;8.798;2022-12-20T15:36:20;10.60;99.90
31765;DHT22;18338;53.240;8.798;2022-12-20T15:38:49;10.60;99.90
31765;DHT22;18338;53.240;8.798;2022-12-20T15:41:36;10.60;99.90
31765;DHT22;18338;53.240;8.798;2022-12-20T15:44:06;10.60;99.90
31765;DHT22;18338;53.240;8.798;2022-12-20T15:46:33;10.70;99.90
31765;DHT22;18338;53.240;8.798;2022-12-20T15:49:00;10.60;99.90
31765;DHT22;18338;53.240;8.798;2022-12-20T15:51:30;10.70;99.90
31765;DHT22;18338;53.240;8.798;2022-12-20T15:53:58;10.70;99.90
31765;DHT22;18338;53.240;8.798;2022-12-20T15:56:26;10.70;99.90
31765;DHT22;18338;53.240;8.798;2022-12-20T15:58:54;10.70;99.90
31765;DHT22;18338;53.240;8.798;2022-12-20T16:01:24;10.70;99.90
31765;DHT22;18338;53.240;8.798;2022-12-20T16:03:53;10.70;99.90
31765;DHT22;18338;53.240;8.798;2022-12-20T16:06:19;10.70;99.90
31765;DHT22;18338;53.240;8.798;2022-12-20T16:08:46;10.80;99.90
31765;DHT22;18338;53.240;8.798;2022-12-20T16:11:20;10.80;99.90
31765;DHT22;18338;53.240;8.798;2022-12-20T16:13:48;10.80;99.90
31765;DHT22;18338;53.240;8.798;2022-12-20T16:16:17;10.80;99.90
31765;DHT22;18338;53.240;8.798;2022-12-20T16:18:45;10.80;99.90
31765;DHT22;18338;53.240;8.798;2022-12-20T16:21:17;10.80;99.90
31765;DHT22;18338;53.240;8.798;2022-12-20T16:23:45;10.80;99.90
31765;DHT22;18338;53.240;8.798;2022-12-20T16:26:17;10.80;99.90
31765;DHT22;18338;53.240;8.798;2022-12-20T16:28:45;10.80;99.90
31765;DHT22;18338;53.240;8.798;2022-12-20T16:31:38;10.80;99.90
31765;DHT22;18338;53.240;8.798;2022-12-20T16:34:11;10.90;99.90
31765;DHT22;18338;53.240;8.798;2022-12-20T16:36:38;10.80;99.90
31765;DHT22;18338;53.240;8.798;2022-12-20T16:39:05;10.80;99.90
31765;DHT22;18338;53.240;8.798;2022-12-20T16:41:32;10.80;99.90
31765;DHT22;18338;53.240;8.798;2022-12-20T16:44:00;10.80;99.90
31765;DHT22;18338;53.240;8.798;2022-12-20T16:46:30;10.80;99.90
31765;DHT22;18338;53.240;8.798;2022-12-20T16:48:58;10.80;99.90
31765;DHT22;18338;53.240;8.798;2022-12-20T16:51:37;10.80;99.90
31765;DHT22;18338;53.240;8.798;2022-12-20T16:54:17;10.80;99.90
31765;DHT22;18338;53.240;8.798;2022-12-20T16:56:52;10.80;99.90
31765;DHT22;18338;53.240;8.798;2022-12-20T16:59:22;10.80;99.90
31765;DHT22;18338;53.240;8.798;2022-12-20T17:01:51;10.80;99.90
31765;DHT22;18338;53.240;8.798;2022-12-20T17:04:19;10.80;99.90
31765;DHT22;18338;53.240;8.798;2022-12-20T17:06:47;10.90;99.90
31765;DHT22;18338;53.240;8.798;2022-12-20T17:09:14;10.90;99.90
31765;DHT22;18338;53.240;8.798;2022-12-20T17:11:59;10.90;99.90
31765;DHT22;18338;53.240;8.798;2022-12-20T17:14:29;10.90;99.90
31765;DHT22;18338;53.240;8.798;2022-12-20T17:16:56;10.90;99.90
31765;DHT22;18338;53.240;8.798;2022-12-20T17:19:23;10.90;99.90
31765;DHT22;18338;53.240;8.798;2022-12-20T17:21:49;10.90;99.90
31765;DHT22;18338;53.240;8.798;2022-12-20T17:24:34;10.90;99.90
31765;DHT22;18338;53.240;8.798;2022-12-20T17:27:01;10.80;99.90
31765;DHT22;18338;53.240;8.798;2022-12-20T17:29:27;10.90;99.90
31765;DHT22;18338;53.240;8.798;2022-12-20T17:31:54;10.90;99.90
31765;DHT22;18338;53.240;8.798;2022-12-20T17:34:26;10.80;99.90
31765;DHT22;18338;53.240;8.798;2022-12-20T17:36:55;10.80;99.90
31765;DHT22;18338;53.240;8.798;2022-12-20T17:39:23;10.80;99.90
31765;DHT22;18338;53.240;8.798;2022-12-20T17:41:51;10.80;99.90
31765;DHT22;18338;53.240;8.798;2022-12-20T17:44:24;10.80;99.90
31765;DHT22;18338;53.240;8.798;2022-12-20T17:46:52;10.80;99.90
31765;DHT22;18338;53.240;8.798;2022-12-20T17:49:19;10.80;99.90
31765;DHT22;18338;53.240;8.798;2022-12-20T17:51:46;10.80;99.90
31765;DHT22;18338;53.240;8.798;2022-12-20T17:54:19;10.80;99.90
31765;DHT22;18338;53.240;8.798;2022-12-20T17:56:46;10.80;99.90
31765;DHT22;18338;53.240;8.798;2022-12-20T17:59:13;10.80;99.90
31765;DHT22;18338;53.240;8.798;2022-12-20T18:01:41;10.80;99.90